Meteorología y climatología de Navarra
Datos de la estación - Meteo Navarra

Estación de Doneztebe-Santesteban GN

Altitud 125 m.


Datos desde el 10/10/2019 hasta el 11/10/2019 en horario solar
Los datos son PROVISIONALES

Anterior Página 1 de 1 Siguiente Descargar: Formato para Excel 2000 o superior   Formato csv   Formato para OpenOffice Calc
Fecha Temperatura Humedad relativa Radiación global Insolación Precipitación Vel. viento 10 m Vel. viento 10 m Dir. viento 10 m
ºC % W/m² s l/m² m/s km/h º
10/10/2019 0:00 12.6 98 0.0 0 0.0 0.6 2.2 128
10/10/2019 0:10 12.6 98 0.0 0 0.0 0.5 1.7 128
10/10/2019 0:20 12.6 98 0.0 0 0.0 0.5 1.7 140
10/10/2019 0:30 12.4 98 0.0 0 0.0 0.2 0.8 63
10/10/2019 0:40 12.1 98 0.0 0 0.0 0.0 0.0 0
10/10/2019 0:50 12.2 98 0.0 0 0.0 0.2 0.7 123
10/10/2019 1:00 12.4 99 0.0 0 0.0 0.1 0.3 120
10/10/2019 1:10 12.5 99 0.0 0 0.0 0.4 1.3 128
10/10/2019 1:20 12.6 98 0.0 0 0.0 0.4 1.4 120
10/10/2019 1:30 12.5 98 0.0 0 0.0 0.1 0.4 112
10/10/2019 1:40 12.4 98 0.0 0 0.0 0.0 0.0 191
10/10/2019 1:50 12.4 98 0.0 0 0.0 0.0 0.0 0
10/10/2019 2:00 12.4 98 0.0 0 0.0 0.0 0.1 243
10/10/2019 2:10 12.3 98 0.0 0 0.0 0.7 2.3 126
10/10/2019 2:20 12.4 98 0.0 0 0.0 0.4 1.3 119
10/10/2019 2:30 12.3 98 0.0 0 0.0 0.3 1.2 289
10/10/2019 2:40 12.0 98 0.0 0 0.0 0.7 2.5 307
10/10/2019 2:50 11.9 98 0.0 0 0.0 0.5 1.7 303
10/10/2019 3:00 11.9 98 0.0 0 0.0 0.2 0.6 253
10/10/2019 3:10 11.9 98 0.0 0 0.0 0.8 3.0 105
10/10/2019 3:20 11.9 98 0.0 0 0.0 1.1 4.1 127
10/10/2019 3:30 11.9 98 0.0 0 0.0 0.8 2.7 81
10/10/2019 3:40 11.7 98 0.0 0 0.0 0.2 0.6 82
10/10/2019 3:50 11.7 98 0.0 0 0.0 0.6 2.2 97
10/10/2019 4:00 11.6 98 0.0 0 0.0 0.6 2.1 56
10/10/2019 4:10 11.4 98 0.0 0 0.0 0.2 0.6 96
10/10/2019 4:20 11.5 98 0.0 0 0.0 0.4 1.6 83
10/10/2019 4:30 11.4 98 0.0 0 0.0 0.2 0.8 115
10/10/2019 4:40 11.4 98 0.0 0 0.0 0.8 2.9 89
10/10/2019 4:50 11.3 98 0.0 0 0.0 0.7 2.3 78
10/10/2019 5:00 11.2 98 0.0 0 0.0 0.1 0.2 7
10/10/2019 5:10 11.1 98 0.0 0 0.0 0.3 1.2 260
10/10/2019 5:20 11.0 98 0.0 0 0.0 0.2 0.8 273
10/10/2019 5:30 11.0 98 0.0 0 0.0 0.3 1.2 275
10/10/2019 5:40 10.8 98 0.0 0 0.0 0.8 3.0 291
10/10/2019 5:50 10.8 98 0.0 0 0.0 0.6 2.0 294
10/10/2019 6:00 10.8 98 0.0 0 0.0 0.7 2.3 295
10/10/2019 6:10 10.7 98 0.0 0 0.0 0.9 3.3 294
10/10/2019 6:20 10.6 98 0.0 0 0.0 1.0 3.6 293
10/10/2019 6:30 10.6 99 0.0 0 0.0 0.9 3.1 308
10/10/2019 6:40 10.5 99 0.0 0 0.0 1.1 4.0 307
10/10/2019 6:50 10.5 99 8.0 0 0.0 0.7 2.4 305
10/10/2019 7:00 10.4 99 23.3 0 0.0 1.6 5.8 308
10/10/2019 7:10 10.4 99 34.9 0 0.0 1.3 4.8 316
10/10/2019 7:20 10.4 99 57.8 0 0.0 1.1 3.9 302
10/10/2019 7:30 10.5 99 82.8 0 0.0 1.3 4.5 300
10/10/2019 7:40 10.7 99 109.3 0 0.0 1.0 3.6 303
10/10/2019 7:50 10.8 99 121.5 0 0.0 0.9 3.1 319
10/10/2019 8:00 10.9 98 100.6 0 0.0 0.8 2.9 338
10/10/2019 8:10 11.1 98 137.0 0 0.0 0.7 2.5 300
10/10/2019 8:20 11.4 97 191.9 478 0.0 0.5 1.9 321
10/10/2019 8:30 11.7 96 209.6 398 0.0 0.4 1.5 74
10/10/2019 8:40 12.1 94 222.6 230 0.0 0.2 0.6 85
10/10/2019 8:50 12.6 92 241.8 600 0.0 0.6 2.3 117
10/10/2019 9:00 13.1 90 281.6 600 0.0 0.9 3.3 122
10/10/2019 9:10 13.9 88 416.5 600 0.0 0.8 3.0 147
10/10/2019 9:20 14.4 85 421.4 600 0.0 0.5 1.9 140
10/10/2019 9:30 14.8 82 491.7 600 0.0 0.4 1.6 155
10/10/2019 9:40 15.6 80 512.3 600 0.0 0.6 2.2 166
10/10/2019 9:50 16.5 77 531.6 600 0.0 0.6 2.2 156
10/10/2019 10:00 17.4 73 551.3 600 0.0 0.9 3.2 128
10/10/2019 10:10 18.2 71 570.5 600 0.0 0.8 2.8 141
10/10/2019 10:20 17.9 69 587.9 600 0.0 0.5 1.7 183
10/10/2019 10:30 18.0 67 603.8 600 0.0 0.3 1.0 178
10/10/2019 10:40 18.2 67 620.7 600 0.0 0.1 0.4 195
10/10/2019 10:50 18.2 66 634.6 600 0.0 0.0 0.1 203
10/10/2019 11:00 18.8 64 643.8 600 0.0 0.0 0.1 159
10/10/2019 11:10 19.8 63 656.4 600 0.0 0.1 0.3 152
10/10/2019 11:20 20.2 57 659.5 600 0.0 0.0 0.1 176
10/10/2019 11:30 20.1 58 671.8 600 0.0 0.2 0.8 196
10/10/2019 11:40 20.2 60 683.7 600 0.0 0.4 1.5 175
10/10/2019 11:50 21.2 54 704.4 600 0.0 0.7 2.5 109
10/10/2019 12:00 21.3 51 710.3 600 0.0 0.8 2.9 184
10/10/2019 12:10 21.7 50 737.6 600 0.0 1.4 4.9 116
10/10/2019 12:20 22.0 50 744.0 600 0.0 1.0 3.5 101
10/10/2019 12:30 21.7 53 732.0 600 0.0 1.9 6.9 349
10/10/2019 12:40 21.1 56 712.1 600 0.0 2.3 8.2 331
10/10/2019 12:50 21.0 55 667.1 600 0.0 2.0 7.3 330
10/10/2019 13:00 21.2 53 652.8 600 0.0 0.9 3.3 341
10/10/2019 13:10 21.1 52 640.0 600 0.0 0.5 1.6 318
10/10/2019 13:20 21.5 53 632.0 600 0.0 1.5 5.4 343
10/10/2019 13:30 21.5 53 621.9 600 0.0 1.6 5.7 320
10/10/2019 13:40 21.7 53 603.3 600 0.0 2.3 8.3 323
10/10/2019 13:50 21.6 52 581.5 600 0.0 1.5 5.5 322
10/10/2019 14:00 21.7 53 582.2 600 0.0 2.6 9.5 333
10/10/2019 14:10 21.8 54 579.0 600 0.0 1.8 6.6 324
10/10/2019 14:20 21.7 53 557.1 600 0.0 2.9 10.3 331
10/10/2019 14:30 21.8 53 567.3 600 0.0 2.5 9.0 343
10/10/2019 14:40 21.6 54 512.0 600 0.0 2.0 7.1 336
10/10/2019 14:50 21.7 54 441.8 600 0.0 1.8 6.4 328
10/10/2019 15:00 21.5 55 416.2 600 0.0 2.6 9.5 333
10/10/2019 15:10 21.3 56 396.2 600 0.0 2.3 8.1 322
10/10/2019 15:20 21.0 57 373.3 600 0.0 2.3 8.2 334
10/10/2019 15:30 21.0 58 319.6 600 0.0 1.4 5.0 340
10/10/2019 15:40 20.8 58 300.2 600 0.0 1.6 5.7 335
10/10/2019 15:50 20.6 59 269.5 600 0.0 2.4 8.7 351
10/10/2019 16:00 20.1 61 238.7 600 0.0 2.2 8.0 344
10/10/2019 16:10 20.0 63 206.4 600 0.0 2.0 7.2 332
10/10/2019 16:20 19.7 64 176.2 600 0.0 1.9 6.8 334
10/10/2019 16:30 19.4 66 147.0 600 0.0 1.8 6.3 333
10/10/2019 16:40 19.1 67 118.4 600 0.0 2.1 7.5 352
10/10/2019 16:50 18.6 69 89.4 600 0.0 1.7 6.0 329
10/10/2019 17:00 18.0 72 36.5 56 0.0 1.6 5.7 329
10/10/2019 17:10 17.7 73 22.4 0 0.0 1.5 5.4 320
10/10/2019 17:20 16.9 78 6.5 0 0.0 0.4 1.4 298
10/10/2019 17:30 16.2 82 0.0 0 0.0 0.4 1.5 302
10/10/2019 17:40 15.6 85 0.0 0 0.0 0.0 0.1 287
10/10/2019 17:50 15.3 86 0.0 0 0.0 0.1 0.4 287
10/10/2019 18:00 14.9 87 0.0 0 0.0 0.6 2.1 336
10/10/2019 18:10 14.6 89 0.0 0 0.0 0.2 0.8 346
10/10/2019 18:20 14.1 91 0.0 0 0.0 0.0 0.0 0
10/10/2019 18:30 13.7 91 0.0 0 0.0 0.0 0.0 0
10/10/2019 18:40 13.3 93 0.0 0 0.0 0.0 0.0 256
10/10/2019 18:50 12.9 94 0.0 0 0.0 0.0 0.0 0
10/10/2019 19:00 12.8 95 0.0 0 0.0 0.0 0.0 165
10/10/2019 19:10 12.4 94 0.0 0 0.0 0.1 0.3 169
10/10/2019 19:20 12.1 95 0.0 0 0.0 0.0 0.1 265
10/10/2019 19:30 12.1 96 0.0 0 0.0 0.0 0.0 0
10/10/2019 19:40 11.9 96 0.0 0 0.0 0.1 0.3 187
10/10/2019 19:50 11.8 96 0.0 0 0.0 0.1 0.2 148
10/10/2019 20:00 11.6 96 0.0 0 0.0 0.2 0.9 140
10/10/2019 20:10 11.2 96 0.0 0 0.0 0.0 0.1 259
10/10/2019 20:20 11.2 97 0.0 0 0.0 0.0 0.0 0
10/10/2019 20:30 11.1 97 0.0 0 0.0 0.0 0.0 0
10/10/2019 20:40 10.9 97 0.0 0 0.0 0.0 0.0 0
10/10/2019 20:50 10.8 97 0.0 0 0.0 0.0 0.0 208
10/10/2019 21:00 10.6 97 0.0 0 0.0 0.0 0.0 0
10/10/2019 21:10 10.5 97 0.0 0 0.0 0.0 0.0 0
10/10/2019 21:20 10.4 97 0.0 0 0.0 0.5 1.8 148
10/10/2019 21:30 10.3 98 0.0 0 0.0 0.0 0.0 157
10/10/2019 21:40 10.1 97 0.0 0 0.0 0.0 0.0 0
10/10/2019 21:50 10.1 98 0.0 0 0.0 0.4 1.4 126
10/10/2019 22:00 10.0 97 0.0 0 0.0 0.1 0.4 132
10/10/2019 22:10 9.8 97 0.0 0 0.0 0.2 0.7 191
10/10/2019 22:20 9.9 98 0.0 0 0.0 0.2 0.9 240
10/10/2019 22:30 9.7 98 0.0 0 0.0 0.0 0.0 310
10/10/2019 22:40 9.8 98 0.0 0 0.0 0.0 0.0 0
10/10/2019 22:50 9.8 98 0.0 0 0.0 0.2 0.8 154
10/10/2019 23:00 9.9 98 0.0 0 0.0 0.1 0.4 125
10/10/2019 23:10 10.0 99 0.0 0 0.0 0.4 1.4 131
10/10/2019 23:20 10.0 99 0.0 0 0.0 0.2 0.8 173
10/10/2019 23:30 10.0 98 0.0 0 0.0 0.6 2.0 151
10/10/2019 23:40 10.3 99 0.0 0 0.0 0.9 3.3 135
10/10/2019 23:50 10.2 99 0.0 0 0.0 0.2 0.8 217
Anterior Página 1 de 1 Siguiente

NOTA: Tipo de datos según el color:
   - Valores diarios o 10 minutos correctos
   - Valores diarios calculados a partir de un número de datos 10 minutos menor que 144 y mayor que 120, o de un número de datos semihorarios menor que 48 y mayor que 40 (caso de las estaciones de Riegos de Navarra y del MARM)
   - Valores diez minutos estimados


Contacto        Enlaces        Aviso legal